Airfield :
LOGIN :

Register | Disclaimer

   EN    FR    IT 

 










Legend :    VFR   Marginal VFR   IFR   Intensive IFR   Very Intensive IFR
Visi :
Ceiling :
>= 8 km
>= 3000ft
5 to 8 km
1000 to 3000 ft
1500m to 5 km
500 to 1000 ft
800 to 1500m
200 to 500 ft
< 800m
< 200 ft
Symbols :   Thunderstorms  Fog  Heavy snow  Heavy precipitations  Wind > 20 kt
SIGMETs :     Misc.  Thunderstorms  Icing  Turbulence  Mountain Waves  Volcanic Ashes







- Airport Elevation : 306 ft
- IATA code : EMA
- Download approach charts


EGNX - Nottingham East Midlands

CURRENT METAR :
  • 230620Z 22010KT CAVOK 13/12 Q1008

EXPIRED METARs :
  • 230550Z 22009KT 9999 SCT035 13/12 Q1007
  • 230520Z 23010KT 9999 SCT035 13/12 Q1007
  • 230450Z 22008KT 9999 FEW015 SCT035 13/13 Q1007
  • 230420Z 21008KT 9999 FEW015 SCT032 13/13 Q1006

TAF TAF EGNX
Valid from the 23 at 06:00 until the 24 at 06:00 UTC


230501Z 2306/2406 18008KT 9999 FEW045
BECMG 2317/2320 BKN012
TEMPO 2317/2324 7000 RA
PROB40
TEMPO 2317/2321 4000 +RA BKN008
PROB30
TEMPO 2403/2406 14020G30KT 3000 +SHRA +SHGS BKN009CB
ATIS : +44 1332 852 852 (ext 3201)
No reported NOTAMs for that airfield.



MET'MAP, your aeronautical weather chart ! - Copyright ORBIFLY December 2007 - Disclaimer

ORBIFLY MET'MAP TEAM :

Programming & Development : Alexandra Zaïnal
Concept & Development : Baudouin d'Aumeries
Co-Development & Prog : Marc-Olivier Méhu
Technical & hardware support : Manuel Goepfert

Contact : metmap@orbifly.com




SOURCES & CREDITS :

   NOAA